Time;durP1;ratioP1;P1;durP2;ratioP2;P2;SDS_P1;SDS_P2;PMS_P1;PMS_P2;Temp;Humidity;BMP_temperature;BMP_pressure;BME280_temperature;BME280_humidity;BME280_pressure;Samples;Min_cycle;Max_cycle;Signal;HPM_P1;HPM_P2
2022/09/10 00:00:16;;;;;;;13.57;5.97;;;;;;;13.94;100.00;100907.25;4876263;29;20037;-92
2022/09/10 00:02:44;;;;;;;14.23;6.47;;;;;;;13.91;100.00;100903.94;4867491;29;20129;-93
2022/09/10 00:05:14;;;;;;;15.02;6.43;;;;;;;13.92;100.00;100903.84;4881986;29;20064;-92
2022/09/10 00:07:41;;;;;;;11.70;6.70;;;;;;;13.89;100.00;100885.75;4882016;29;20029;-91
2022/09/10 00:10:07;;;;;;;18.52;7.20;;;;;;;13.99;100.00;100907.94;4859897;29;20036;-92
2022/09/10 00:12:47;;;;;;;14.90;7.07;;;;;;;13.95;100.00;100911.56;4874549;29;20033;-92
2022/09/10 00:15:18;;;;;;;14.48;6.20;;;;;;;13.90;100.00;100890.06;4874624;29;20036;-92
2022/09/10 00:17:43;;;;;;;13.30;7.00;;;;;;;13.96;100.00;100888.97;4875065;29;20041;-92
2022/09/10 00:20:12;;;;;;;17.45;7.22;;;;;;;14.00;100.00;100898.38;4851379;29;20048;-93
2022/09/10 00:22:49;;;;;;;16.08;6.93;;;;;;;13.98;100.00;100884.56;4863000;29;20041;-93
2022/09/10 00:25:15;;;;;;;16.95;7.22;;;;;;;14.07;100.00;100900.69;4856245;29;20044;-94
2022/09/10 00:27:40;;;;;;;14.23;6.72;;;;;;;13.99;100.00;100883.66;4855023;29;20132;-94
2022/09/10 00:30:07;;;;;;;14.85;7.50;;;;;;;14.03;100.00;100886.09;4875877;29;20596;-93
2022/09/10 00:32:33;;;;;;;16.67;7.22;;;;;;;14.05;100.00;100884.28;4875200;29;20211;-93
2022/09/10 00:35:00;;;;;;;16.00;7.22;;;;;;;14.01;100.00;100879.22;4880551;29;20040;-93
2022/09/10 00:37:26;;;;;;;12.65;6.93;;;;;;;14.13;100.00;100905.66;4879351;29;20035;-93
2022/09/10 00:39:51;;;;;;;15.20;6.90;;;;;;;14.04;100.00;100890.41;4876027;29;20036;-94
2022/09/10 00:42:35;;;;;;;12.30;7.07;;;;;;;14.11;100.00;100899.69;4885067;29;20042;-93
2022/09/10 00:45:04;;;;;;;19.25;7.05;;;;;;;14.10;100.00;100899.75;4857116;29;20085;-94
2022/09/10 00:47:43;;;;;;;12.82;7.00;;;;;;;14.14;100.00;100896.09;4858916;29;20059;-93
2022/09/10 00:50:26;;;;;;;11.95;6.65;;;;;;;14.20;100.00;100901.94;4884193;29;20021;-92
2022/09/10 00:52:58;;;;;;;14.98;6.93;;;;;;;14.13;100.00;100889.19;4874893;29;20033;-92
2022/09/10 00:55:27;;;;;;;15.65;6.50;;;;;;;14.19;100.00;100905.44;4852972;29;20546;-91
2022/09/10 00:57:59;;;;;;;13.60;7.40;;;;;;;14.11;100.00;100893.63;4879117;29;20060;-91
2022/09/10 01:00:32;;;;;;;14.48;7.13;;;;;;;14.08;100.00;100880.69;4888257;29;20033;-92
2022/09/10 01:02:58;;;;;;;17.48;7.95;;;;;;;14.17;100.00;100902.06;4856569;29;20500;-91
2022/09/10 01:05:28;;;;;;;11.80;6.82;;;;;;;14.15;100.00;100897.81;4885849;29;20037;-91
2022/09/10 01:07:56;;;;;;;14.60;7.50;;;;;;;14.17;100.00;100911.63;4875174;29;20033;-93
2022/09/10 01:10:31;;;;;;;16.75;7.57;;;;;;;14.09;100.00;100890.22;4872968;29;21891;-92
2022/09/10 01:13:24;;;;;;;14.70;7.10;;;;;;;14.21;100.00;100905.38;4874004;29;20049;-91
2022/09/10 01:16:25;;;;;;;14.75;7.00;;;;;;;14.08;100.00;100891.97;4856893;29;20037;-92
2022/09/10 01:19:15;;;;;;;16.40;7.60;;;;;;;14.22;100.00;100914.91;4811968;29;20133;-93
2022/09/10 01:21:50;;;;;;;16.63;7.65;;;;;;;14.15;100.00;100903.00;4873866;29;20503;-92
2022/09/10 01:25:03;;;;;;;16.63;7.07;;;;;;;14.21;100.00;100915.81;4883070;29;20025;-92
2022/09/10 01:27:37;;;;;;;17.70;7.93;;;;;;;14.12;100.00;100903.16;4839394;29;20103;-91
2022/09/10 01:30:18;;;;;;;14.75;7.20;;;;;;;14.08;100.00;100899.78;4855518;29;20124;-90
2022/09/10 01:32:52;;;;;;;14.38;7.20;;;;;;;14.08;100.00;100901.53;4875941;29;20521;-91
2022/09/10 01:35:41;;;;;;;20.13;7.80;;;;;;;14.07;100.00;100897.22;4891030;29;20063;-92
2022/09/10 01:38:16;;;;;;;16.27;7.43;;;;;;;14.21;100.00;100915.81;4880498;29;20587;-92
2022/09/10 01:40:42;;;;;;;15.18;7.60;;;;;;;14.12;100.00;100893.56;4882789;29;20426;-92
2022/09/10 01:43:10;;;;;;;18.88;7.60;;;;;;;14.14;100.00;100901.31;4883168;29;20025;-91
2022/09/10 01:46:12;;;;;;;19.15;8.70;;;;;;;14.20;100.00;100912.34;4863142;29;20029;-92
2022/09/10 01:49:18;;;;;;;21.25;8.40;;;;;;;14.22;100.00;100925.34;4876239;29;20506;-92
2022/09/10 01:51:56;;;;;;;17.15;8.23;;;;;;;14.21;100.00;100921.88;4766500;30;20128;-91
2022/09/10 01:54:44;;;;;;;16.40;8.77;;;;;;;14.22;100.00;100920.97;4765868;30;20035;-91
2022/09/10 01:57:23;;;;;;;17.75;8.85;;;;;;;14.22;100.00;100920.13;4846855;29;20472;-92
2022/09/10 02:00:10;;;;;;;18.95;8.95;;;;;;;14.12;100.00;100897.94;4878257;29;20047;-92
2022/09/10 02:02:35;;;;;;;17.90;8.90;;;;;;;14.22;100.00;100917.53;4887343;29;20054;-92
2022/09/10 02:05:05;;;;;;;18.67;9.18;;;;;;;14.10;100.00;100891.91;4881107;29;20501;-92
2022/09/10 02:07:38;;;;;;;17.52;9.50;;;;;;;14.26;100.00;100905.25;4877429;29;20028;-93
2022/09/10 02:10:08;;;;;;;20.42;9.70;;;;;;;14.11;100.00;100891.00;4860949;29;20072;-94
2022/09/10 02:12:44;;;;;;;19.85;9.25;;;;;;;14.14;100.00;100894.34;4861323;29;20048;-94
2022/09/10 02:15:10;;;;;;;19.80;9.80;;;;;;;14.11;100.00;100885.81;4877541;29;20400;-92
2022/09/10 02:17:38;;;;;;;23.30;9.25;;;;;;;14.20;100.00;100909.75;4861197;29;20029;-93
2022/09/10 02:20:14;;;;;;;22.20;9.77;;;;;;;14.14;100.00;100891.72;4876912;29;20812;-93
2022/09/10 02:22:48;;;;;;;19.73;9.93;;;;;;;14.12;100.00;100896.19;4876909;29;20145;-92
2022/09/10 02:25:13;;;;;;;;;;;;;;;14.23;100.00;100900.97;4879613;29;20029;-92
2022/09/10 02:27:41;;;;;;;18.90;9.45;;;;;;;14.17;100.00;100883.81;4871898;29;20348;-93
2022/09/10 02:30:08;;;;;;;18.10;9.27;;;;;;;14.17;100.00;100881.22;4878714;29;20116;-93
2022/09/10 02:32:37;;;;;;;20.67;9.93;;;;;;;14.17;100.00;100870.78;4861562;29;20037;-94
2022/09/10 02:35:02;;;;;;;16.92;9.20;;;;;;;14.15;100.00;100874.34;4889802;29;20081;-93
2022/09/10 02:37:28;;;;;;;25.08;10.02;;;;;;;14.21;100.00;100874.09;4878287;29;20040;-93
2022/09/10 02:39:54;;;;;;;23.90;10.43;;;;;;;14.21;100.00;100863.66;4869419;29;20043;-92
2022/09/10 02:42:21;;;;;;;21.65;10.77;;;;;;;14.20;100.00;100873.25;4862264;29;20105;-93
2022/09/10 02:44:49;;;;;;;18.65;10.32;;;;;;;14.21;100.00;100866.28;4878062;29;20387;-92
2022/09/10 02:47:14;;;;;;;23.88;11.15;;;;;;;14.24;100.00;100872.25;4876763;29;20095;-92
2022/09/10 02:49:45;;;;;;;27.08;11.07;;;;;;;14.30;100.00;100878.97;4866263;29;20024;-93
2022/09/10 02:52:17;;;;;;;21.73;10.77;;;;;;;14.21;100.00;100866.28;4877784;29;20033;-94
2022/09/10 02:54:43;;;;;;;25.25;11.55;;;;;;;14.23;100.00;100874.91;4876865;29;20033;-93
2022/09/10 02:57:09;;;;;;;24.77;11.05;;;;;;;14.33;100.00;100891.88;4868726;29;20025;-93
2022/09/10 02:59:37;;;;;;;27.58;11.77;;;;;;;14.32;100.00;100878.91;4866835;29;20025;-93
2022/09/10 03:02:02;;;;;;;21.40;11.15;;;;;;;14.29;100.00;100873.81;4890442;29;20035;-93
2022/09/10 03:04:28;;;;;;;20.02;10.77;;;;;;;14.28;100.00;100869.50;4879157;29;20021;-92
2022/09/10 03:06:54;;;;;;;21.02;11.70;;;;;;;14.32;100.00;100876.31;4876818;29;20041;-93
2022/09/10 03:09:22;;;;;;;19.98;10.85;;;;;;;14.44;100.00;100894.97;4877824;29;20032;-93
2022/09/10 03:11:48;;;;;;;21.40;11.32;;;;;;;14.38;100.00;100878.72;4877782;29;20039;-92
2022/09/10 03:14:21;;;;;;;23.40;11.68;;;;;;;14.32;100.00;100864.13;4877141;29;20033;-93
2022/09/10 03:16:46;;;;;;;25.45;11.90;;;;;;;14.35;100.00;100866.59;4876832;29;20494;-93
2022/09/10 03:19:15;;;;;;;27.92;12.45;;;;;;;14.39;100.00;100877.81;4859643;29;20029;-93
2022/09/10 03:21:41;;;;;;;22.13;12.15;;;;;;;14.41;100.00;100883.78;4860130;29;20052;-93
2022/09/10 03:24:10;;;;;;;22.92;11.75;;;;;;;14.42;100.00;100881.13;4877173;29;20048;-93
2022/09/10 03:26:56;;;;;;;19.90;12.07;;;;;;;14.39;100.00;100868.22;4878288;29;20036;-94
2022/09/10 03:29:26;;;;;;;24.88;11.40;;;;;;;14.38;100.00;100869.13;4887154;29;20029;-94
2022/09/10 03:32:01;;;;;;;23.15;12.13;;;;;;;14.55;100.00;100897.16;4888427;29;20040;-95
2022/09/10 03:34:43;;;;;;;24.38;12.23;;;;;;;14.47;100.00;100879.19;4848156;29;20029;-94
2022/09/10 03:37:44;;;;;;;21.60;12.05;;;;;;;14.44;100.00;100871.50;4871732;29;20407;-96
2022/09/10 03:40:31;;;;;;;23.42;11.65;;;;;;;14.47;100.00;100873.13;4873491;29;20037;-95
2022/09/10 03:43:03;;;;;;;23.35;11.85;;;;;;;14.51;100.00;100879.94;4862423;29;20029;-95
2022/09/10 03:45:43;;;;;;;;;;;;;;;;;;;;;
2022/09/10 03:48:14;;;;;;;19.85;12.15;;;;;;;14.43;100.00;100866.34;4874019;29;20035;-94
2022/09/10 03:50:50;;;;;;;25.10;13.10;;;;;;;14.55;100.00;100889.31;4879759;29;20050;-95
2022/09/10 03:53:27;;;;;;;25.30;12.98;;;;;;;14.45;100.00;100870.59;4877168;29;20033;-95
2022/09/10 03:56:02;;;;;;;23.08;12.32;;;;;;;14.40;100.00;100861.22;4863250;29;20380;-93
2022/09/10 03:58:49;;;;;;;26.88;13.35;;;;;;;14.45;100.00;100867.13;4876219;29;20053;-95
2022/09/10 04:05:13;;;;;;;27.52;12.57;;;;;;;14.47;100.00;100857.47;4869147;29;20394;-94
2022/09/10 04:07:42;;;;;;;31.70;13.85;;;;;;;14.46;100.00;100858.41;4864798;29;20120;-94
2022/09/10 04:10:31;;;;;;;25.20;13.80;;;;;;;14.41;100.00;100858.56;4877535;29;20034;-95
2022/09/10 04:13:29;;;;;;;;;;;;;;;;;;;;;
2022/09/10 04:15:55;;;;;;;27.40;13.52;;;;;;;14.50;100.00;100876.47;4878005;29;20483;-93
2022/09/10 04:21:47;;;;;;;25.35;13.80;;;;;;;14.35;100.00;100853.56;4869660;29;20044;-95
2022/09/10 04:24:37;;;;;;;29.58;14.30;;;;;;;14.44;100.00;100868.03;4860923;29;20624;-95
2022/09/10 04:27:02;;;;;;;30.48;14.40;;;;;;;14.35;100.00;100848.34;4870593;29;20110;-95
2022/09/10 04:29:42;;;;;;;29.02;15.05;;;;;;;14.34;100.00;100851.00;4854050;29;20036;-94
2022/09/10 04:32:13;;;;;;;30.15;14.32;;;;;;;14.45;100.00;100861.91;4862348;29;20045;-94
2022/09/10 04:34:49;;;;;;;29.88;15.15;;;;;;;14.40;100.00;100858.63;4874957;29;20510;-94
2022/09/10 04:37:30;;;;;;;33.45;14.50;;;;;;;14.41;100.00;100861.19;4854969;29;20044;-93
2022/09/10 04:40:04;;;;;;;27.85;15.07;;;;;;;14.40;100.00;100850.78;4860571;29;20092;-93
2022/09/10 04:42:50;;;;;;;;;;;;;;;14.50;100.00;100873.88;4866340;29;20071;-93
2022/09/10 04:45:31;;;;;;;;;;;;;;;14.51;100.00;100872.09;4889385;29;19918;-94
2022/09/10 04:48:03;;;;;;;27.95;14.20;;;;;;;14.44;100.00;100873.25;4858752;29;19911;-94
2022/09/10 04:50:45;;;;;;;32.90;15.20;;;;;;;14.51;100.00;100875.56;4847663;29;20029;-93
2022/09/10 04:53:24;;;;;;;30.95;14.20;;;;;;;14.36;100.00;100857.88;4870750;29;20045;-95
2022/09/10 04:56:04;;;;;;;30.67;15.02;;;;;;;14.42;100.00;100870.69;4857132;29;20523;-94
2022/09/10 04:58:34;;;;;;;28.08;14.90;;;;;;;14.50;100.00;100886.91;4867256;29;20145;-93
2022/09/10 05:01:01;;;;;;;29.75;14.55;;;;;;;14.46;100.00;100879.28;4866310;29;20033;-94
2022/09/10 05:04:01;;;;;;;33.03;15.25;;;;;;;14.46;100.00;100871.44;4882633;29;20065;-94
2022/09/10 05:07:25;;;;;;;29.17;15.05;;;;;;;14.43;100.00;100869.78;4866856;29;20028;-95
2022/09/10 05:10:01;;;;;;;26.05;14.23;;;;;;;14.48;100.00;100875.69;4863823;29;20051;-95
2022/09/10 05:12:39;;;;;;;32.60;15.60;;;;;;;14.47;100.00;100878.34;4882070;29;20033;-93
2022/09/10 05:15:19;;;;;;;28.13;15.50;;;;;;;14.51;100.00;100874.72;4881780;29;20073;-94
2022/09/10 05:18:01;;;;;;;27.70;15.18;;;;;;;14.45;100.00;100861.91;4873986;29;20040;-94
2022/09/10 05:21:20;;;;;;;30.70;15.25;;;;;;;14.52;100.00;100882.50;4863099;29;20052;-95
2022/09/10 05:24:03;;;;;;;28.00;14.82;;;;;;;14.36;100.00;100851.81;4813867;29;20035;-94
2022/09/10 05:29:56;;;;;;;31.93;14.43;;;;;;;14.40;100.00;100856.00;4792696;29;20088;-96
2022/09/10 05:32:53;;;;;;;34.13;15.00;;;;;;;14.44;100.00;100868.91;4849635;29;20055;-94
2022/09/10 05:35:39;;;;;;;29.30;14.68;;;;;;;14.41;100.00;100870.75;4878634;29;20048;-95
2022/09/10 05:38:07;;;;;;;27.92;14.80;;;;;;;14.49;100.00;100866.09;4867002;29;20045;-95
2022/09/10 05:44:42;;;;;;;31.42;15.38;;;;;;;14.49;100.00;100868.69;4877169;29;20060;-96
2022/09/10 05:47:33;;;;;;;32.50;15.57;;;;;;;14.47;100.00;100860.06;4885327;29;20028;-94
2022/09/10 05:50:41;;;;;;;36.38;16.17;;;;;;;14.56;100.00;100871.00;4860921;29;20047;-96
2022/09/10 05:53:47;;;;;;;;;;;;;;;;;;;;;
2022/09/10 06:00:00;;;;;;;32.63;15.27;;;;;;;14.54;100.00;100866.75;4876635;29;20057;-95
2022/09/10 06:03:01;;;;;;;33.10;15.50;;;;;;;14.52;100.00;100863.38;4882340;29;20024;-95
2022/09/10 06:06:18;;;;;;;33.17;15.50;;;;;;;14.54;100.00;100871.97;4880138;29;20041;-94
2022/09/10 06:08:59;;;;;;;34.30;16.25;;;;;;;14.54;100.00;100869.34;4824850;29;20038;-95
2022/09/10 06:11:56;;;;;;;32.40;16.25;;;;;;;14.57;100.00;100870.09;4862946;29;20024;-94
2022/09/10 06:15:20;;;;;;;30.88;15.13;;;;;;;14.66;100.00;100884.56;4877300;29;20071;-94
2022/09/10 06:18:03;;;;;;;31.15;15.90;;;;;;;14.60;100.00;100871.75;4844868;29;20073;-95
2022/09/10 06:21:16;;;;;;;31.08;16.38;;;;;;;14.72;100.00;100891.28;4866728;29;20506;-95
2022/09/10 06:24:26;;;;;;;34.38;16.67;;;;;;;14.66;100.00;100874.13;4862405;29;20101;-95
2022/09/10 06:27:04;;;;;;;33.10;15.70;;;;;;;14.81;100.00;100890.88;4842203;29;20136;-94
2022/09/10 06:29:55;;;;;;;;;;;;;;;;;;;;;
2022/09/10 06:32:51;;;;;;;37.05;17.38;;;;;;;14.74;100.00;100877.25;4857754;29;20045;-95
2022/09/10 06:35:30;;;;;;;;;;;;;;;;;;;;;
2022/09/10 06:38:07;;;;;;;33.33;16.55;;;;;;;14.76;100.00;100877.19;4859341;29;20047;-94
2022/09/10 06:40:49;;;;;;;30.40;15.93;;;;;;;14.80;100.00;100879.63;4843211;29;20041;-93
2022/09/10 06:43:49;;;;;;;31.35;16.00;;;;;;;14.77;100.00;100877.13;4841291;29;20099;-94
2022/09/10 06:46:18;;;;;;;31.30;15.15;;;;;;;14.72;100.00;100876.47;4816498;29;20050;-92
2022/09/10 06:48:44;;;;;;;27.45;15.48;;;;;;;14.77;100.00;100891.94;4850573;29;20146;-95
2022/09/10 06:51:28;;;;;;;32.75;16.20;;;;;;;14.80;100.00;100892.69;4859075;29;20041;-93
2022/09/10 06:53:55;;;;;;;27.83;15.10;;;;;;;14.73;100.00;100882.53;4843975;29;20038;-93
2022/09/10 06:56:21;;;;;;;30.42;16.30;;;;;;;14.78;100.00;100896.25;4855145;29;20393;-94
2022/09/10 06:58:49;;;;;;;28.48;15.55;;;;;;;14.79;100.00;100898.81;4858115;29;20396;-93
2022/09/10 07:01:19;;;;;;;31.55;16.80;;;;;;;14.71;100.00;100881.75;4842616;29;20040;-94
2022/09/10 07:03:45;;;;;;;31.02;16.55;;;;;;;14.74;100.00;100886.88;4851176;29;20026;-94
2022/09/10 07:06:16;;;;;;;31.92;16.88;;;;;;;14.78;100.00;100894.50;4851388;29;20419;-94
2022/09/10 07:08:47;;;;;;;32.53;16.73;;;;;;;14.79;100.00;100898.81;4858208;29;20487;-94
2022/09/10 07:11:19;;;;;;;31.90;17.55;;;;;;;14.82;100.00;100905.66;4857998;29;20041;-93
2022/09/10 07:13:50;;;;;;;33.20;17.25;;;;;;;14.82;100.00;100893.44;4857514;29;20089;-94
2022/09/10 07:16:21;;;;;;;36.78;18.25;;;;;;;14.79;100.00;100885.75;4844417;29;20410;-94
2022/09/10 07:18:48;;;;;;;38.13;18.17;;;;;;;14.97;100.00;100897.19;4862211;29;20045;-94
2022/09/10 07:21:18;;;;;;;39.95;19.33;;;;;;;14.99;100.00;100884.94;4862842;29;20100;-94
2022/09/10 07:24:14;;;;;;;37.22;19.40;;;;;;;15.12;100.00;100898.34;4856187;29;20151;-94
2022/09/10 07:26:40;;;;;;;37.38;18.67;;;;;;;15.19;100.00;100908.47;4874376;29;20078;-94
2022/09/10 07:29:06;;;;;;;37.15;19.20;;;;;;;15.21;100.00;100911.03;4875901;29;20037;-94
2022/09/10 07:31:37;;;;;;;39.85;19.85;;;;;;;15.16;100.00;100889.44;4866420;29;20097;-94
2022/09/10 07:34:05;;;;;;;36.67;19.45;;;;;;;15.22;100.00;100910.06;4877819;29;20017;-95
2022/09/10 07:36:38;;;;;;;32.63;18.88;;;;;;;15.16;100.00;100908.56;4872825;29;20045;-96
2022/09/10 07:39:09;;;;;;;30.63;18.35;;;;;;;15.12;100.00;100909.63;4878931;29;20500;-96
2022/09/10 07:42:16;;;;;;;31.33;17.77;;;;;;;15.08;100.00;100905.44;4882606;29;20037;-96
2022/09/10 07:44:53;;;;;;;28.58;16.92;;;;;;;15.15;100.00;100917.31;4884091;29;20029;-95
2022/09/10 07:47:22;;;;;;;32.55;17.80;;;;;;;15.01;100.00;100901.41;4880959;29;20044;-96
2022/09/10 07:49:48;;;;;;;31.38;17.80;;;;;;;14.97;100.00;100900.66;4882184;29;20032;-96
2022/09/10 07:52:22;;;;;;;31.77;17.63;;;;;;;15.00;100.00;100904.91;4885938;29;20120;-95
2022/09/10 07:54:51;;;;;;;29.92;17.30;;;;;;;15.03;100.00;100915.22;4856133;29;20017;-96
2022/09/10 07:57:24;;;;;;;34.78;19.60;;;;;;;15.02;100.00;100921.34;4898869;29;20522;-95
2022/09/10 08:00:02;;;;;;;31.67;19.30;;;;;;;15.00;100.00;100912.75;4888930;29;20033;-96
2022/09/10 08:02:30;;;;;;;34.35;19.50;;;;;;;15.03;100.00;100910.00;4893992;29;20094;-96
2022/09/10 08:05:03;;;;;;;31.27;19.70;;;;;;;14.98;100.00;100912.81;4863170;29;20028;-95
2022/09/10 08:07:57;;;;;;;34.17;20.38;;;;;;;15.02;100.00;100927.41;4880776;29;20456;-96
2022/09/10 08:10:43;;;;;;;35.17;20.63;;;;;;;15.11;100.00;100947.09;4871013;29;20041;-96
2022/09/10 08:13:28;;;;;;;35.92;21.40;;;;;;;14.98;100.00;100920.63;4882370;29;20492;-96
2022/09/10 08:16:02;;;;;;;37.65;22.23;;;;;;;15.16;100.00;100950.34;4883315;29;20388;-96
2022/09/10 08:21:24;;;;;;;35.22;21.45;;;;;;;15.32;100.00;100948.81;4874527;29;19950;-95
2022/09/10 08:24:03;;;;;;;41.95;23.52;;;;;;;15.41;100.00;100938.00;4903127;29;20045;-96
2022/09/10 08:26:38;;;;;;;44.63;24.42;;;;;;;15.62;100.00;100940.66;4885697;29;20029;-96
2022/09/10 08:29:21;;;;;;;41.22;24.60;;;;;;;15.73;100.00;100965.41;4878895;29;20041;-96
2022/09/10 08:32:05;;;;;;;40.20;24.07;;;;;;;15.74;100.00;100967.09;4860781;29;20056;-95
2022/09/10 08:34:30;;;;;;;39.47;24.13;;;;;;;15.70;100.00;100959.44;4890312;29;20053;-95
2022/09/10 08:36:58;;;;;;;41.55;24.90;;;;;;;15.74;100.00;100956.66;4880227;29;20037;-96
2022/09/10 08:39:26;;;;;;;41.15;25.35;;;;;;;15.86;100.00;100957.03;4885803;29;20033;-95
2022/09/10 08:42:15;;;;;;;40.35;25.38;;;;;;;16.07;100.00;100963.91;4883668;29;20033;-95
2022/09/10 08:44:59;;;;;;;43.63;25.63;;;;;;;16.24;100.00;100974.47;4864855;29;20033;-96
2022/09/10 08:47:58;;;;;;;40.80;24.80;;;;;;;16.33;100.00;100974.06;4883941;29;20033;-95
2022/09/10 08:50:47;;;;;;;41.25;25.00;;;;;;;16.31;100.00;100975.06;4903112;29;20041;-96
2022/09/10 08:53:33;;;;;;;38.20;25.55;;;;;;;16.43;100.00;100980.59;4861351;29;20089;-96
2022/09/10 08:56:32;;;;;;;41.53;25.65;;;;;;;16.35;100.00;100961.75;4874466;29;20060;-95
2022/09/10 08:59:51;;;;;;;;;;;;;;;;;;;;;
2022/09/10 09:02:35;;;;;;;37.58;24.10;;;;;;;16.47;100.00;100983.91;4892674;29;20107;-95
2022/09/10 09:05:09;;;;;;;;;;;;;;;16.54;100.00;100993.16;4881974;29;20046;-96
2022/09/10 09:08:07;;;;;;;33.85;22.02;;;;;;;16.31;100.00;100975.88;4870740;29;19972;-95
2022/09/10 09:11:23;;;;;;;34.50;23.13;;;;;;;16.27;100.00;100979.56;4857383;29;20066;-96
2022/09/10 09:14:02;;;;;;;33.40;22.45;;;;;;;16.32;100.00;101008.13;4859460;29;20108;-96
2022/09/10 09:16:46;;;;;;;33.22;21.65;;;;;;;16.31;100.00;101006.47;4852574;29;20041;-96
2022/09/10 09:19:28;;;;;;;29.60;21.20;;;;;;;16.30;100.00;101010.00;4881132;29;20029;-95
2022/09/10 09:22:02;;;;;;;31.30;21.15;;;;;;;16.17;100.00;100980.91;4884932;29;20078;-94
2022/09/10 09:24:46;;;;;;;;;;;;;;;16.37;100.00;101003.56;4890101;29;20076;-96
2022/09/10 09:30:24;;;;;;;25.52;18.38;;;;;;;16.39;100.00;100994.72;4867237;29;20037;-96
2022/09/10 09:33:06;;;;;;;23.90;17.98;;;;;;;16.39;100.00;100991.25;4862395;29;20065;-95
2022/09/10 09:35:45;;;;;;;23.92;18.00;;;;;;;16.45;100.00;100998.81;4875764;29;20444;-95
2022/09/10 09:38:25;;;;;;;26.33;18.20;;;;;;;16.58;100.00;101007.81;4877172;29;20033;-96
2022/09/10 09:40:59;;;;;;;29.50;19.70;;;;;;;16.71;100.00;101009.00;4879747;29;20192;-95
2022/09/10 09:43:48;;;;;;;28.98;19.52;;;;;;;16.84;100.00;100994.41;4882328;29;20056;-94
2022/09/10 09:46:41;;;;;;;28.58;19.48;;;;;;;17.06;100.00;100988.97;4881340;29;20048;-96
2022/09/10 09:49:19;;;;;;;28.92;19.38;;;;;;;17.24;100.00;100997.72;4869009;29;20029;-96
2022/09/10 09:51:57;;;;;;;31.25;19.83;;;;;;;17.46;100.00;101008.00;4870417;29;20111;-96
2022/09/10 09:57:41;;;;;;;24.05;18.42;;;;;;;17.46;100.00;100989.66;4877203;29;20100;-96
2022/09/10 10:01:00;;;;;;;27.00;17.73;;;;;;;17.59;100.00;101015.19;4881933;29;20037;-96
2022/09/10 10:04:03;;;;;;;26.08;18.80;;;;;;;17.58;100.00;101008.25;4878518;29;20466;-96
2022/09/10 10:07:31;;;;;;;25.88;17.90;;;;;;;17.66;100.00;101005.28;4877625;29;20025;-96
2022/09/10 10:10:04;;;;;;;25.73;18.23;;;;;;;17.81;100.00;101004.47;4809536;29;20358;-96
2022/09/10 10:12:33;;;;;;;25.85;18.67;;;;;;;17.87;100.00;100998.09;4814653;29;20046;-96
2022/09/10 10:15:52;;;;;;;24.27;18.10;;;;;;;18.16;100.00;101021.03;4891145;29;20051;-96
2022/09/10 10:18:40;;;;;;;24.55;17.10;;;;;;;18.23;100.00;101017.16;4868203;29;20072;-94
2022/09/10 10:21:22;;;;;;;23.73;16.17;;;;;;;18.13;100.00;101026.44;4869126;29;20139;-94
2022/09/10 10:23:48;;;;;;;20.40;14.85;;;;;;;17.88;100.00;101005.84;4869443;29;20033;-95
2022/09/10 10:26:20;;;;;;;20.85;15.20;;;;;;;18.00;100.00;101020.13;4886718;29;20490;-93
2022/09/10 10:28:57;;;;;;;19.00;14.25;;;;;;;17.87;100.00;101004.19;4889227;29;20039;-94
2022/09/10 10:32:02;;;;;;;17.67;14.23;;;;;;;17.86;100.00;100994.63;4882348;29;20035;-93
2022/09/10 10:34:57;;;;;;;;;;;;;;;18.04;100.00;101019.03;4886014;29;20558;-92
2022/09/10 10:38:13;;;;;;;18.00;12.35;;;;;;;17.83;100.00;101017.50;4875573;29;19920;-94
2022/09/10 10:41:15;;;;;;;17.83;13.20;;;;;;;17.68;100.00;101001.63;4877306;29;20032;-94
2022/09/10 10:44:07;;;;;;;20.10;12.13;;;;;;;17.57;100.00;101008.31;4851012;29;20037;-94
2022/09/10 10:47:00;;;;;;;16.00;12.07;;;;;;;17.51;100.00;101011.25;4870827;29;20037;-92
2022/09/10 10:49:32;;;;;;;20.95;12.15;;;;;;;17.48;100.00;101027.09;4871906;29;20033;-92
2022/09/10 10:52:26;;;;;;;18.15;11.60;;;;;;;17.28;100.00;101017.59;4878626;29;20033;-94
2022/09/10 10:55:11;;;;;;;14.82;11.10;;;;;;;17.13;100.00;101010.47;4884709;29;20029;-92
2022/09/10 10:58:00;;;;;;;15.82;10.65;;;;;;;17.02;100.00;101018.00;4874284;29;20041;-92
2022/09/10 11:00:36;;;;;;;13.07;9.25;;;;;;;16.95;100.00;101041.03;4879614;29;20479;-93
2022/09/10 11:03:04;;;;;;;15.23;8.38;;;;;;;17.01;100.00;101048.59;4861451;29;20029;-93
2022/09/10 11:05:46;;;;;;;13.55;8.60;;;;;;;16.83;100.00;101024.13;4862699;29;20045;-93
2022/09/10 11:09:03;;;;;;;15.90;8.48;;;;;;;16.82;100.00;101021.56;4884094;29;20052;-93
2022/09/10 11:11:42;;;;;;;13.02;7.15;;;;;;;16.88;100.00;101057.94;4838042;29;20041;-94
2022/09/10 11:14:29;;;;;;;13.98;7.68;;;;;;;16.87;100.00;101058.84;4861142;29;20033;-94
2022/09/10 11:17:16;;;;;;;13.60;7.97;;;;;;;16.74;100.00;101034.16;4878619;29;20045;-94
2022/09/10 11:20:01;;;;;;;12.63;7.53;;;;;;;16.76;100.00;101043.66;4878033;29;20049;-91
2022/09/10 11:22:47;;;;;;;14.77;6.97;;;;;;;16.73;100.00;101033.31;4877674;29;20261;-92
2022/09/10 11:25:31;;;;;;;12.60;6.30;;;;;;;16.84;100.00;101059.88;4861568;29;20041;-91
2022/09/10 11:28:18;;;;;;;12.98;6.65;;;;;;;16.72;100.00;101049.09;4859312;29;20036;-92
2022/09/10 11:31:12;;;;;;;12.73;6.65;;;;;;;16.66;100.00;101033.66;4863710;29;20436;-92
2022/09/10 11:33:58;;;;;;;13.60;7.40;;;;;;;16.66;100.00;101039.75;4878256;29;20040;-92
2022/09/10 11:36:50;;;;;;;15.70;8.13;;;;;;;16.65;100.00;101040.66;4873640;29;20053;-92
2022/09/10 11:40:05;;;;;;;18.65;8.43;;;;;;;16.73;100.00;101040.31;4875472;29;20492;-92
2022/09/10 11:43:16;;;;;;;20.20;8.82;;;;;;;16.82;100.00;101040.75;4843224;29;20045;-93
2022/09/10 11:46:01;;;;;;;18.38;9.60;;;;;;;16.98;100.00;101061.84;4864614;29;20043;-92
2022/09/10 11:48:37;;;;;;;20.33;9.43;;;;;;;17.10;100.00;101060.41;4879254;29;20032;-94
2022/09/10 11:54:42;;;;;;;15.52;9.98;;;;;;;17.23;100.00;101038.78;4877654;29;20083;-95
2022/09/10 11:57:26;;;;;;;20.42;11.07;;;;;;;17.52;100.00;101060.13;4889011;29;20041;-95
2022/09/10 12:07:45;;;;;;;26.75;13.50;;;;;;;18.28;100.00;101040.53;4884182;29;20041;-96
2022/09/10 12:10:38;;;;;;;24.13;14.05;;;;;;;18.65;100.00;101070.97;4881191;29;20511;-95
2022/09/10 12:13:09;;;;;;;22.05;12.57;;;;;;;18.42;100.00;101046.72;4877809;29;20064;-95
2022/09/10 12:15:37;;;;;;;21.85;13.27;;;;;;;18.33;100.00;101070.00;4882591;29;20116;-96
2022/09/10 12:18:29;;;;;;;19.80;12.02;;;;;;;18.11;100.00;101051.91;4881627;29;20088;-95
2022/09/10 12:21:26;;;;;;;19.60;12.55;;;;;;;17.98;100.00;101063.94;4877726;29;20049;-94
2022/09/10 12:23:55;;;;;;;20.02;12.68;;;;;;;17.78;100.00;101064.97;4862333;29;20060;-94
2022/09/10 12:26:28;;;;;;;22.40;13.82;;;;;;;17.78;100.00;101083.31;4889501;29;20038;-95
2022/09/10 12:28:59;;;;;;;23.63;13.95;;;;;;;17.57;100.00;101064.22;4890296;29;20036;-95
2022/09/10 12:31:27;;;;;;;23.63;13.70;;;;;;;17.53;100.00;101073.16;4892536;29;20119;-95
2022/09/10 12:34:29;;;;;;;21.27;13.23;;;;;;;17.65;100.00;101093.56;4890922;29;20065;-95
2022/09/10 12:37:01;;;;;;;17.25;11.60;;;;;;;17.66;100.00;101089.16;4887685;29;20040;-96
2022/09/10 12:39:45;;;;;;;21.90;13.07;;;;;;;17.57;100.00;101072.06;4894275;29;20099;-95
2022/09/10 12:42:44;;;;;;;;;;;;;;;;;;;;;
2022/09/10 12:45:50;;;;;;;22.85;13.45;;;;;;;18.00;100.00;101069.97;4884893;29;20109;-96
2022/09/10 12:48:16;;;;;;;22.95;13.75;;;;;;;18.42;100.00;101085.28;4877781;29;20033;-94
2022/09/10 12:50:59;;;;;;;23.83;14.23;;;;;;;18.83;100.00;101093.63;4861724;29;20048;-94